createdAt,value
2022-10-12T00:02:08.144Z,30.70
2022-10-12T00:04:35.189Z,30.60
2022-10-12T00:07:02.125Z,30.80
2022-10-12T00:09:28.995Z,30.70
2022-10-12T00:11:55.893Z,30.00
2022-10-12T00:14:22.869Z,29.60
2022-10-12T00:16:49.762Z,30.10
2022-10-12T00:19:16.744Z,30.90
2022-10-12T00:21:43.719Z,31.20
2022-10-12T00:24:10.896Z,31.60
2022-10-12T00:26:37.894Z,31.70
2022-10-12T00:29:04.950Z,31.50
2022-10-12T00:31:32.586Z,31.90
2022-10-12T00:34:01.803Z,32.10
2022-10-12T00:36:32.622Z,32.60
2022-10-12T00:38:59.959Z,32.30
2022-10-12T00:41:30.959Z,31.90
2022-10-12T00:43:59.053Z,31.80
2022-10-12T00:46:45.194Z,32.20
2022-10-12T00:49:23.402Z,32.20
2022-10-12T00:51:58.852Z,32.40
2022-10-12T00:54:34.989Z,32.90
2022-10-12T00:57:04.680Z,32.50
2022-10-12T00:59:38.433Z,32.90
2022-10-12T01:02:05.680Z,33.00
2022-10-12T01:04:33.487Z,33.10
2022-10-12T01:07:01.087Z,33.40
2022-10-12T01:09:29.805Z,33.50
2022-10-12T01:12:00.086Z,33.50
2022-10-12T01:14:27.075Z,33.50
2022-10-12T01:17:16.703Z,33.40
2022-10-12T01:19:43.542Z,33.00
2022-10-12T01:22:17.111Z,32.50
2022-10-12T01:25:08.596Z,31.90
2022-10-12T01:27:55.674Z,31.70
2022-10-12T01:30:36.943Z,32.50
2022-10-12T01:33:03.841Z,32.90
2022-10-12T01:35:43.734Z,32.80
2022-10-12T01:38:22.503Z,32.90
2022-10-12T01:41:03.322Z,32.50
2022-10-12T01:43:38.457Z,32.70
2022-10-12T01:46:17.414Z,32.70
2022-10-12T01:48:46.796Z,32.80
2022-10-12T01:51:21.493Z,32.90
2022-10-12T01:54:13.468Z,32.70
2022-10-12T01:57:02.320Z,32.50
2022-10-12T01:59:49.893Z,32.50
2022-10-12T02:02:22.863Z,32.50
2022-10-12T02:04:52.060Z,32.60
2022-10-12T02:07:50.702Z,32.50
2022-10-12T02:10:26.501Z,32.40
2022-10-12T02:12:54.860Z,32.40
2022-10-12T02:15:24.513Z,32.20
2022-10-12T02:17:53.633Z,32.00
2022-10-12T02:20:24.290Z,31.20
2022-10-12T02:22:52.144Z,30.60
2022-10-12T02:25:23.658Z,30.50
2022-10-12T02:27:57.861Z,30.20
2022-10-12T02:30:25.128Z,30.30
2022-10-12T02:33:03.688Z,30.90
2022-10-12T02:35:43.704Z,31.00
2022-10-12T02:38:22.187Z,31.10
2022-10-12T02:40:58.622Z,31.20
2022-10-12T02:43:35.210Z,31.60
2022-10-12T02:46:04.630Z,31.20
2022-10-12T02:48:32.108Z,31.20
2022-10-12T02:50:59.901Z,31.20
2022-10-12T02:53:29.835Z,31.40
2022-10-12T02:56:10.637Z,31.50
2022-10-12T02:58:37.663Z,31.80
2022-10-12T03:01:05.392Z,31.20
2022-10-12T03:03:32.390Z,31.20
2022-10-12T03:05:59.304Z,31.50
2022-10-12T03:08:26.246Z,31.10
2022-10-12T03:10:53.177Z,30.90
2022-10-12T03:13:20.105Z,31.10
2022-10-12T03:15:46.981Z,30.80
2022-10-12T03:18:13.898Z,30.90
2022-10-12T03:20:40.800Z,31.20
2022-10-12T03:23:07.639Z,31.40
2022-10-12T03:25:34.558Z,31.90
2022-10-12T03:28:01.709Z,31.50
2022-10-12T03:30:28.641Z,31.80
2022-10-12T03:32:55.564Z,32.10
2022-10-12T03:35:23.227Z,31.60
2022-10-12T03:37:50.276Z,31.60
2022-10-12T03:40:17.176Z,31.90
2022-10-12T03:42:44.072Z,32.20
2022-10-12T03:45:12.736Z,31.90
2022-10-12T03:47:40.280Z,31.30
2022-10-12T03:50:07.840Z,31.20
2022-10-12T03:52:34.735Z,31.40
2022-10-12T03:55:01.681Z,31.80
2022-10-12T03:57:28.691Z,32.60
2022-10-12T03:59:55.588Z,32.80
2022-10-12T04:02:25.420Z,33.10
2022-10-12T04:04:52.353Z,33.20
2022-10-12T04:07:19.287Z,33.00
2022-10-12T04:09:46.313Z,33.10
2022-10-12T04:12:13.319Z,33.10
2022-10-12T04:14:40.725Z,33.40
2022-10-12T04:17:07.943Z,33.90
2022-10-12T04:19:34.858Z,34.20
2022-10-12T04:22:01.733Z,34.50
2022-10-12T04:24:28.792Z,34.60
2022-10-12T04:26:55.714Z,34.30
2022-10-12T04:29:25.002Z,34.20
2022-10-12T04:31:51.901Z,34.20
2022-10-12T04:34:18.994Z,34.50
2022-10-12T04:36:45.993Z,34.50
2022-10-12T04:39:13.604Z,34.60
2022-10-12T04:41:40.559Z,34.70
2022-10-12T04:44:08.439Z,34.60
2022-10-12T04:46:35.325Z,34.30
2022-10-12T04:49:02.309Z,34.20
2022-10-12T04:51:29.227Z,34.20
2022-10-12T04:53:56.127Z,34.40
2022-10-12T04:56:23.172Z,34.60
2022-10-12T04:58:50.437Z,34.80
2022-10-12T05:01:17.385Z,35.00
2022-10-12T05:03:44.342Z,35.10
2022-10-12T05:06:11.289Z,35.00
2022-10-12T05:08:38.206Z,35.00
2022-10-12T05:11:05.303Z,35.10
2022-10-12T05:13:32.445Z,35.30
2022-10-12T05:15:59.343Z,35.30
2022-10-12T05:18:26.348Z,35.30
2022-10-12T05:20:56.868Z,35.10
2022-10-12T05:23:24.237Z,35.00
2022-10-12T05:25:51.195Z,35.10
2022-10-12T05:28:18.175Z,35.10
2022-10-12T05:30:45.143Z,35.30
2022-10-12T05:33:12.040Z,35.10
2022-10-12T05:35:40.948Z,34.60
2022-10-12T05:38:09.809Z,34.60
2022-10-12T05:40:36.780Z,34.90
2022-10-12T05:43:03.989Z,35.00
2022-10-12T05:45:30.915Z,35.10
2022-10-12T05:47:57.936Z,35.20
2022-10-12T05:50:24.837Z,35.20
2022-10-12T05:52:51.739Z,35.30
2022-10-12T05:55:18.666Z,35.20
2022-10-12T05:57:48.472Z,35.10
2022-10-12T06:00:18.847Z,34.90
2022-10-12T06:02:46.848Z,34.90
2022-10-12T06:05:13.767Z,34.80
2022-10-12T06:07:40.751Z,34.90
2022-10-12T06:10:08.249Z,34.30
2022-10-12T06:12:35.320Z,34.50
2022-10-12T06:15:02.331Z,34.20
2022-10-12T06:17:29.229Z,34.20
2022-10-12T06:19:56.225Z,34.30
2022-10-12T06:22:23.231Z,34.00
2022-10-12T06:24:50.822Z,33.50
2022-10-12T06:27:20.154Z,33.60
2022-10-12T06:29:47.397Z,33.90
2022-10-12T06:32:14.282Z,34.20
2022-10-12T06:34:41.197Z,34.40
2022-10-12T06:37:16.359Z,34.60
2022-10-12T06:39:55.069Z,34.80
2022-10-12T06:42:22.142Z,34.30
2022-10-12T06:44:49.236Z,34.00
2022-10-12T06:47:16.282Z,33.90
2022-10-12T06:49:43.213Z,33.60
2022-10-12T06:52:10.077Z,33.40
2022-10-12T06:54:36.972Z,33.40
2022-10-12T06:57:06.351Z,33.80
2022-10-12T06:59:33.563Z,34.00
2022-10-12T07:02:00.525Z,34.10
2022-10-12T07:04:27.571Z,34.30
2022-10-12T07:06:54.530Z,34.10
2022-10-12T07:09:21.597Z,34.20
2022-10-12T07:11:48.550Z,34.20
2022-10-12T07:14:15.590Z,34.10
2022-10-12T07:16:42.571Z,34.30
2022-10-12T07:19:09.506Z,33.80
2022-10-12T07:21:36.736Z,33.50
2022-10-12T07:24:04.130Z,33.20
2022-10-12T07:26:31.918Z,32.80
2022-10-12T07:28:59.389Z,33.30
2022-10-12T07:31:26.339Z,33.40
2022-10-12T07:33:54.237Z,33.90
2022-10-12T07:36:22.126Z,33.70
2022-10-12T07:38:49.727Z,33.70
2022-10-12T07:41:17.272Z,34.00
2022-10-12T07:43:44.522Z,34.00
2022-10-12T07:46:12.187Z,33.90
2022-10-12T07:48:45.680Z,33.30
2022-10-12T07:51:16.035Z,33.10
2022-10-12T07:53:43.068Z,33.20
2022-10-12T07:56:15.262Z,32.50
2022-10-12T07:58:53.436Z,32.30
2022-10-12T08:01:22.213Z,32.70
2022-10-12T08:03:49.720Z,32.90
2022-10-12T08:06:19.375Z,33.10
2022-10-12T08:08:46.673Z,32.50
2022-10-12T08:11:14.575Z,32.60
2022-10-12T08:13:42.654Z,33.20
2022-10-12T08:16:13.730Z,33.90
2022-10-12T08:18:40.611Z,34.40
2022-10-12T08:21:08.782Z,34.50
2022-10-12T08:23:36.705Z,34.80
2022-10-12T08:26:04.736Z,35.00
2022-10-12T08:28:32.124Z,34.50
2022-10-12T08:30:59.072Z,34.80
2022-10-12T08:33:29.438Z,34.40
2022-10-12T08:35:56.369Z,34.60
2022-10-12T08:38:23.319Z,34.40
2022-10-12T08:40:56.732Z,34.40
2022-10-12T08:43:42.344Z,33.90
2022-10-12T08:46:09.665Z,33.00
2022-10-12T08:49:00.193Z,33.10
2022-10-12T08:51:30.921Z,33.50
2022-10-12T08:54:03.133Z,33.90
2022-10-12T08:56:30.116Z,33.90
2022-10-12T08:58:57.511Z,34.80
2022-10-12T09:01:32.477Z,35.10
2022-10-12T09:04:18.230Z,35.10
2022-10-12T09:06:48.289Z,35.10
2022-10-12T09:09:26.968Z,34.50
2022-10-12T09:12:17.561Z,35.00
2022-10-12T09:14:47.227Z,35.00
2022-10-12T09:18:04.705Z,35.10
2022-10-12T09:20:50.769Z,35.20
2022-10-12T09:23:26.957Z,35.20
2022-10-12T09:26:17.323Z,35.40
2022-10-12T09:28:44.224Z,35.20
2022-10-12T09:31:30.131Z,35.80
2022-10-12T09:33:59.259Z,35.70
2022-10-12T09:36:31.140Z,35.60
2022-10-12T09:39:00.550Z,35.90
2022-10-12T09:41:35.355Z,36.00
2022-10-12T09:44:05.093Z,34.70
2022-10-12T09:46:46.422Z,33.70
2022-10-12T09:49:13.318Z,34.00
2022-10-12T09:51:41.074Z,34.40
2022-10-12T09:54:15.958Z,34.60
2022-10-12T09:56:50.110Z,34.40
2022-10-12T09:59:39.290Z,34.70
2022-10-12T10:02:11.935Z,34.30
2022-10-12T10:04:40.571Z,34.60
2022-10-12T10:07:30.644Z,35.10
2022-10-12T10:10:12.622Z,34.40
2022-10-12T10:12:53.120Z,33.80
2022-10-12T10:15:41.542Z,34.20
2022-10-12T10:18:44.682Z,34.50
2022-10-12T10:21:25.106Z,35.30
2022-10-12T10:23:55.704Z,35.60
2022-10-12T10:26:24.331Z,35.90
2022-10-12T10:28:59.026Z,35.60
2022-10-12T10:31:29.378Z,36.10
2022-10-12T10:34:11.478Z,35.40
2022-10-12T10:36:44.871Z,35.70
2022-10-12T10:39:39.985Z,35.60
2022-10-12T10:42:20.622Z,35.90
2022-10-12T10:44:51.437Z,35.90
2022-10-12T10:47:18.850Z,35.20
2022-10-12T10:49:50.797Z,34.60
2022-10-12T10:52:28.076Z,34.60
2022-10-12T10:55:13.572Z,35.00
2022-10-12T10:57:46.237Z,35.30
2022-10-12T11:00:39.080Z,35.40
2022-10-12T11:03:22.293Z,35.90
2022-10-12T11:05:58.313Z,36.00
2022-10-12T11:08:31.140Z,36.10
2022-10-12T11:11:09.005Z,36.30
2022-10-12T11:13:53.681Z,36.10
2022-10-12T11:16:39.347Z,36.10
2022-10-12T11:19:33.593Z,36.10
2022-10-12T11:22:11.246Z,35.90
2022-10-12T11:24:43.137Z,36.30
2022-10-12T11:27:16.881Z,36.10
2022-10-12T11:29:44.243Z,35.90
2022-10-12T11:32:27.880Z,36.00
2022-10-12T11:35:07.028Z,36.90
2022-10-12T11:37:58.497Z,35.70
2022-10-12T11:41:05.554Z,36.10
2022-10-12T11:44:16.987Z,35.60
2022-10-12T11:46:54.963Z,35.70
2022-10-12T11:49:59.563Z,35.70
2022-10-12T11:52:36.328Z,36.00
2022-10-12T11:55:27.225Z,36.00
2022-10-12T11:57:58.230Z,35.90
2022-10-12T12:00:32.816Z,35.80
2022-10-12T12:03:47.920Z,35.60
2022-10-12T12:06:30.051Z,35.70
2022-10-12T12:09:03.188Z,35.60
2022-10-12T12:11:33.023Z,35.40
2022-10-12T12:14:21.502Z,35.20
2022-10-12T12:16:49.781Z,35.00
2022-10-12T12:19:40.326Z,35.30
2022-10-12T12:22:26.602Z,35.70
2022-10-12T12:25:05.652Z,35.80
2022-10-12T12:27:37.860Z,35.60
2022-10-12T12:30:24.538Z,35.40
2022-10-12T12:32:59.405Z,35.70
2022-10-12T12:35:31.105Z,34.60
2022-10-12T12:38:27.566Z,34.40
2022-10-12T12:40:59.031Z,35.30
2022-10-12T12:43:28.970Z,35.20
2022-10-12T12:46:11.298Z,35.60
2022-10-12T12:48:44.611Z,35.50
2022-10-12T12:51:13.162Z,35.20
2022-10-12T12:53:47.285Z,35.30
2022-10-12T12:56:42.430Z,35.60
2022-10-12T12:59:33.986Z,35.50
2022-10-12T13:02:03.655Z,35.70
2022-10-12T13:04:49.129Z,34.80
2022-10-12T13:07:28.565Z,34.20
2022-10-12T13:10:25.055Z,34.10
2022-10-12T13:13:25.424Z,34.70
2022-10-12T13:16:36.479Z,35.20
2022-10-12T13:19:11.841Z,35.60
2022-10-12T13:21:45.874Z,35.40
2022-10-12T13:24:34.452Z,35.70
2022-10-12T13:27:15.326Z,34.80
2022-10-12T13:30:06.942Z,34.40
2022-10-12T13:32:51.333Z,35.40
2022-10-12T13:35:49.981Z,36.30
2022-10-12T13:38:28.620Z,36.10
2022-10-12T13:40:55.537Z,36.30
2022-10-12T13:43:34.193Z,36.40
2022-10-12T13:46:02.027Z,36.80
2022-10-12T13:48:59.386Z,37.30
2022-10-12T13:51:25.250Z,37.40
2022-10-12T13:53:52.182Z,37.30
2022-10-12T13:56:23.560Z,37.70
2022-10-12T13:58:55.681Z,37.20
2022-10-12T14:01:22.622Z,37.00
2022-10-12T14:03:49.561Z,37.60
2022-10-12T14:06:38.093Z,37.60
2022-10-12T14:09:17.280Z,37.60
2022-10-12T14:11:45.009Z,37.50
2022-10-12T14:14:20.564Z,37.80
2022-10-12T14:16:47.528Z,37.80
2022-10-12T14:19:20.448Z,37.80
2022-10-12T14:21:49.069Z,37.70
2022-10-12T14:24:19.346Z,37.70
2022-10-12T14:26:55.148Z,37.50
2022-10-12T14:29:45.648Z,37.30
2022-10-12T14:32:12.508Z,36.80
2022-10-12T14:34:50.822Z,36.60
2022-10-12T14:37:17.763Z,36.70
2022-10-12T14:39:47.049Z,36.90
2022-10-12T14:42:34.425Z,37.20
2022-10-12T14:45:03.854Z,37.30
2022-10-12T14:47:33.801Z,37.50
2022-10-12T14:50:07.802Z,37.20
2022-10-12T14:52:43.101Z,37.40
2022-10-12T14:55:34.941Z,37.10
2022-10-12T14:58:02.095Z,37.60
2022-10-12T15:00:32.487Z,37.80
2022-10-12T15:03:00.287Z,38.00
2022-10-12T15:05:31.823Z,38.10
2022-10-12T15:07:59.618Z,38.10
2022-10-12T15:10:28.541Z,38.20
2022-10-12T15:12:55.695Z,38.30
2022-10-12T15:15:45.048Z,38.30
2022-10-12T15:18:12.156Z,38.50
2022-10-12T15:20:39.880Z,38.80
2022-10-12T15:23:07.091Z,39.00
2022-10-12T15:25:51.031Z,39.10
2022-10-12T15:28:18.096Z,39.10
2022-10-12T15:31:04.574Z,39.00
2022-10-12T15:33:32.401Z,38.90
2022-10-12T15:35:59.391Z,39.00
2022-10-12T15:38:26.799Z,38.90
2022-10-12T15:40:56.217Z,38.90
2022-10-12T15:43:23.172Z,38.80
2022-10-12T15:45:50.300Z,38.80
2022-10-12T15:48:17.942Z,38.70
2022-10-12T15:50:46.911Z,38.70
2022-10-12T15:53:24.283Z,38.70
2022-10-12T15:55:52.922Z,38.60
2022-10-12T15:58:20.237Z,38.50
2022-10-12T16:00:47.360Z,38.60
2022-10-12T16:03:25.532Z,38.70
2022-10-12T16:05:53.336Z,38.70
2022-10-12T16:08:20.274Z,38.60
2022-10-12T16:10:48.047Z,38.50
2022-10-12T16:13:15.660Z,38.50
2022-10-12T16:15:43.305Z,38.60
2022-10-12T16:18:11.151Z,38.60
2022-10-12T16:20:41.289Z,38.40
2022-10-12T16:23:14.939Z,38.50
2022-10-12T16:25:42.160Z,38.40
2022-10-12T16:28:10.759Z,38.40
2022-10-12T16:30:38.016Z,38.30
2022-10-12T16:33:04.897Z,38.40
2022-10-12T16:35:32.020Z,38.40
2022-10-12T16:37:59.550Z,38.40
2022-10-12T16:40:26.708Z,38.40
2022-10-12T16:42:54.353Z,38.30
2022-10-12T16:45:22.764Z,38.30
2022-10-12T16:47:54.103Z,38.20
2022-10-12T16:50:23.605Z,38.20
2022-10-12T16:52:50.960Z,38.20
2022-10-12T16:55:18.711Z,38.00
2022-10-12T16:57:46.002Z,38.00
2022-10-12T17:00:16.629Z,38.00
2022-10-12T17:02:43.630Z,38.10
2022-10-12T17:05:10.587Z,38.10
2022-10-12T17:07:37.530Z,38.20
2022-10-12T17:10:04.967Z,38.10
2022-10-12T17:12:31.982Z,38.00
2022-10-12T17:14:58.933Z,38.00
2022-10-12T17:17:26.100Z,37.90
2022-10-12T17:19:53.024Z,37.80
2022-10-12T17:22:19.953Z,37.90
2022-10-12T17:24:47.047Z,37.80
2022-10-12T17:27:14.844Z,37.80
2022-10-12T17:29:42.219Z,37.80
2022-10-12T17:32:10.966Z,37.90
2022-10-12T17:34:43.701Z,38.00
2022-10-12T17:37:11.697Z,37.80
2022-10-12T17:39:45.568Z,37.90
2022-10-12T17:42:12.694Z,38.00
2022-10-12T17:44:39.756Z,37.90
2022-10-12T17:47:06.979Z,37.50
2022-10-12T17:49:33.910Z,37.50
2022-10-12T17:52:00.804Z,37.50
2022-10-12T17:54:27.809Z,37.60
2022-10-12T17:56:55.846Z,37.70
2022-10-12T17:59:22.983Z,37.80
2022-10-12T18:01:51.439Z,37.70
2022-10-12T18:04:19.337Z,37.80
2022-10-12T18:06:46.521Z,37.70
2022-10-12T18:09:13.852Z,37.50
2022-10-12T18:11:43.918Z,37.50
2022-10-12T18:14:11.441Z,37.40
2022-10-12T18:16:38.948Z,37.50
2022-10-12T18:19:07.749Z,37.60
2022-10-12T18:21:40.232Z,37.70
2022-10-12T18:24:16.708Z,37.70
2022-10-12T18:26:46.269Z,37.70
2022-10-12T18:29:13.209Z,37.50
2022-10-12T18:31:40.375Z,37.50
2022-10-12T18:34:07.468Z,37.60
2022-10-12T18:36:34.471Z,37.70
2022-10-12T18:39:02.896Z,37.50
2022-10-12T18:41:30.329Z,37.40
2022-10-12T18:43:59.428Z,37.40
2022-10-12T18:46:28.500Z,37.30
2022-10-12T18:48:56.155Z,37.20
2022-10-12T18:51:30.019Z,37.30
2022-10-12T18:53:58.250Z,37.40
2022-10-12T18:56:25.324Z,37.50
2022-10-12T18:58:52.664Z,37.40
2022-10-12T19:01:22.249Z,37.50
2022-10-12T19:03:49.695Z,37.50
2022-10-12T19:06:19.653Z,37.60
2022-10-12T19:08:48.088Z,37.70
2022-10-12T19:11:17.663Z,37.60
2022-10-12T19:13:51.416Z,37.60
2022-10-12T19:16:18.332Z,37.40
2022-10-12T19:18:45.592Z,37.50
2022-10-12T19:21:15.888Z,37.50
2022-10-12T19:23:43.377Z,37.30
2022-10-12T19:26:16.160Z,37.30
2022-10-12T19:28:43.549Z,37.20
2022-10-12T19:31:16.874Z,37.10
2022-10-12T19:33:44.662Z,37.10
2022-10-12T19:36:13.576Z,37.00
2022-10-12T19:38:41.226Z,37.00
2022-10-12T19:41:09.167Z,36.90
2022-10-12T19:43:36.818Z,36.80
2022-10-12T19:46:05.860Z,36.90
2022-10-12T19:48:33.327Z,36.90
2022-10-12T19:51:02.310Z,36.60
2022-10-12T19:53:29.825Z,36.70
2022-10-12T19:56:06.500Z,36.60
2022-10-12T19:58:33.414Z,36.70
2022-10-12T20:01:02.471Z,36.50
2022-10-12T20:03:29.891Z,36.40
2022-10-12T20:05:56.910Z,36.40
2022-10-12T20:08:24.074Z,36.40
2022-10-12T20:10:51.028Z,36.40
2022-10-12T20:13:18.564Z,36.10
2022-10-12T20:15:45.497Z,36.10
2022-10-12T20:18:12.585Z,36.30
2022-10-12T20:20:43.119Z,36.30
2022-10-12T20:23:10.375Z,36.40
2022-10-12T20:25:55.827Z,36.40
2022-10-12T20:28:22.748Z,36.30
2022-10-12T20:30:49.975Z,36.30
2022-10-12T20:33:17.105Z,36.30
2022-10-12T20:35:50.610Z,36.30
2022-10-12T20:38:18.575Z,36.30
2022-10-12T20:40:46.939Z,36.30
2022-10-12T20:43:14.905Z,36.30
2022-10-12T20:45:42.036Z,36.30
2022-10-12T20:48:09.558Z,36.40
2022-10-12T20:50:38.250Z,36.40
2022-10-12T20:53:05.268Z,36.40
2022-10-12T20:55:32.197Z,36.40
2022-10-12T20:57:59.105Z,36.40
2022-10-12T21:00:26.191Z,36.40
2022-10-12T21:02:53.176Z,36.30
2022-10-12T21:05:20.049Z,36.10
2022-10-12T21:07:47.586Z,36.20
2022-10-12T21:10:14.863Z,36.00
2022-10-12T21:12:41.856Z,36.00
2022-10-12T21:15:09.544Z,36.00
2022-10-12T21:17:36.538Z,35.80
2022-10-12T21:20:06.927Z,35.70
2022-10-12T21:22:33.882Z,35.70
2022-10-12T21:25:01.077Z,35.60
2022-10-12T21:27:28.051Z,35.60
2022-10-12T21:29:54.975Z,35.60
2022-10-12T21:32:21.876Z,35.50
2022-10-12T21:34:49.903Z,35.60
2022-10-12T21:37:16.796Z,35.60
2022-10-12T21:39:43.697Z,35.60
2022-10-12T21:42:10.722Z,35.70
2022-10-12T21:44:37.602Z,35.80
2022-10-12T21:47:04.612Z,35.60
2022-10-12T21:49:31.533Z,35.50
2022-10-12T21:51:58.526Z,35.30
2022-10-12T21:54:25.403Z,35.40
2022-10-12T21:56:52.357Z,35.50
2022-10-12T21:59:19.279Z,35.40
2022-10-12T22:01:46.153Z,35.30
2022-10-12T22:04:15.078Z,35.20
2022-10-12T22:06:43.323Z,35.10
2022-10-12T22:09:16.612Z,35.10
2022-10-12T22:11:44.090Z,35.10
2022-10-12T22:14:16.096Z,35.00
2022-10-12T22:16:43.964Z,34.90
2022-10-12T22:19:15.284Z,35.00
2022-10-12T22:21:42.322Z,34.90
2022-10-12T22:24:09.349Z,34.80
2022-10-12T22:26:36.427Z,34.70
2022-10-12T22:29:07.481Z,34.70
2022-10-12T22:31:35.452Z,34.60
2022-10-12T22:34:02.504Z,34.50
2022-10-12T22:36:29.602Z,34.60
2022-10-12T22:38:56.519Z,34.70
2022-10-12T22:41:23.704Z,34.30
2022-10-12T22:43:55.576Z,34.30
2022-10-12T22:46:25.127Z,34.50
2022-10-12T22:48:53.228Z,34.60
2022-10-12T22:51:39.456Z,34.10
2022-10-12T22:54:06.904Z,34.20
2022-10-12T22:56:34.149Z,34.20
2022-10-12T22:59:06.702Z,34.50
2022-10-12T23:01:34.910Z,34.60
2022-10-12T23:04:02.094Z,34.60
2022-10-12T23:06:29.049Z,34.60
2022-10-12T23:08:56.152Z,34.60
2022-10-12T23:11:28.296Z,34.40
2022-10-12T23:13:57.706Z,34.30
2022-10-12T23:16:27.819Z,34.20
2022-10-12T23:19:01.135Z,34.20
2022-10-12T23:21:30.282Z,34.00
2022-10-12T23:23:58.864Z,33.90
2022-10-12T23:26:27.177Z,34.10
2022-10-12T23:28:54.553Z,34.10
2022-10-12T23:31:24.220Z,34.00
2022-10-12T23:34:02.193Z,34.10
2022-10-12T23:36:29.640Z,34.00
2022-10-12T23:38:59.141Z,34.20
2022-10-12T23:41:26.043Z,34.40
2022-10-12T23:43:53.124Z,34.40
2022-10-12T23:46:20.039Z,34.20
2022-10-12T23:48:46.936Z,34.00
2022-10-12T23:51:13.818Z,33.70
2022-10-12T23:53:42.679Z,33.80
2022-10-12T23:56:09.895Z,33.80
2022-10-12T23:58:36.906Z,33.70
